sensor_id;sensor_type;location;lat;lon;timestamp;pressure;altitude;pressure_sealevel;temperature;humidity
44872;BME280;30602;51.060;17.226;2023-03-01T00:02:40;103042.27;;;-4.02;89.67
44872;BME280;30602;51.060;17.226;2023-03-01T00:06:12;103052.44;;;-4.06;89.03
44872;BME280;30602;51.060;17.226;2023-03-01T00:10:08;103049.30;;;-4.12;89.11
44872;BME280;30602;51.060;17.226;2023-03-01T00:13:38;103061.41;;;-4.23;88.65
44872;BME280;30602;51.060;17.226;2023-03-01T00:17:02;103056.21;;;-4.25;89.59
44872;BME280;30602;51.060;17.226;2023-03-01T00:21:02;103054.54;;;-4.17;90.23
44872;BME280;30602;51.060;17.226;2023-03-01T00:24:50;103049.23;;;-4.14;89.78
44872;BME280;30602;51.060;17.226;2023-03-01T00:28:37;103052.04;;;-4.16;89.40
44872;BME280;30602;51.060;17.226;2023-03-01T00:32:23;103033.74;;;-4.40;88.76
44872;BME280;30602;51.060;17.226;2023-03-01T00:35:54;103042.79;;;-4.34;90.02
44872;BME280;30602;51.060;17.226;2023-03-01T00:39:21;103038.43;;;-4.25;90.71
44872;BME280;30602;51.060;17.226;2023-03-01T00:43:31;103028.16;;;-4.33;90.22
44872;BME280;30602;51.060;17.226;2023-03-01T00:47:22;103027.52;;;-4.43;89.38
44872;BME280;30602;51.060;17.226;2023-03-01T00:51:31;103007.38;;;-4.57;89.68
44872;BME280;30602;51.060;17.226;2023-03-01T00:58:54;103021.44;;;-4.52;89.89
44872;BME280;30602;51.060;17.226;2023-03-01T01:06:49;103020.35;;;-4.58;89.67
44872;BME280;30602;51.060;17.226;2023-03-01T01:10:37;103021.45;;;-4.54;90.64
44872;BME280;30602;51.060;17.226;2023-03-01T01:14:25;103019.52;;;-4.57;90.63
44872;BME280;30602;51.060;17.226;2023-03-01T01:18:47;103010.17;;;-4.61;90.26
44872;BME280;30602;51.060;17.226;2023-03-01T01:23:06;103018.64;;;-4.67;89.04
44872;BME280;30602;51.060;17.226;2023-03-01T01:26:47;103016.16;;;-4.73;89.08
44872;BME280;30602;51.060;17.226;2023-03-01T01:30:18;103009.98;;;-4.76;89.92
44872;BME280;30602;51.060;17.226;2023-03-01T01:34:24;102994.88;;;-4.71;90.11
44872;BME280;30602;51.060;17.226;2023-03-01T01:37:53;102989.33;;;-4.75;90.35
44872;BME280;30602;51.060;17.226;2023-03-01T01:42:04;102977.50;;;-4.87;90.38
44872;BME280;30602;51.060;17.226;2023-03-01T01:46:14;102989.22;;;-4.82;90.48
44872;BME280;30602;51.060;17.226;2023-03-01T01:53:39;102984.22;;;-4.76;91.61
44872;BME280;30602;51.060;17.226;2023-03-01T01:57:14;102982.84;;;-4.75;91.63
44872;BME280;30602;51.060;17.226;2023-03-01T02:01:53;102974.84;;;-4.66;91.82
44872;BME280;30602;51.060;17.226;2023-03-01T02:05:49;102972.23;;;-4.63;91.67
44872;BME280;30602;51.060;17.226;2023-03-01T02:09:21;102973.06;;;-4.74;90.89
44872;BME280;30602;51.060;17.226;2023-03-01T02:12:51;102971.59;;;-4.86;90.52
44872;BME280;30602;51.060;17.226;2023-03-01T02:16:51;102974.30;;;-4.81;90.68
44872;BME280;30602;51.060;17.226;2023-03-01T02:20:51;102983.05;;;-4.93;89.98
44872;BME280;30602;51.060;17.226;2023-03-01T02:24:49;102985.63;;;-4.96;90.13
44872;BME280;30602;51.060;17.226;2023-03-01T02:28:57;102985.74;;;-4.99;90.37
44872;BME280;30602;51.060;17.226;2023-03-01T02:32:41;102969.05;;;-5.01;90.95
44872;BME280;30602;51.060;17.226;2023-03-01T02:36:28;102988.77;;;-5.06;90.30
44872;BME280;30602;51.060;17.226;2023-03-01T02:40:17;102990.19;;;-5.18;89.72
44872;BME280;30602;51.060;17.226;2023-03-01T02:44:20;102988.52;;;-5.19;89.56
44872;BME280;30602;51.060;17.226;2023-03-01T02:48:03;103003.48;;;-5.20;89.32
44872;BME280;30602;51.060;17.226;2023-03-01T02:55:28;102998.09;;;-5.31;89.13
44872;BME280;30602;51.060;17.226;2023-03-01T02:59:11;102994.53;;;-5.30;89.41
44872;BME280;30602;51.060;17.226;2023-03-01T03:03:12;103000.38;;;-5.35;89.66
44872;BME280;30602;51.060;17.226;2023-03-01T03:07:34;102992.59;;;-5.38;89.77
44872;BME280;30602;51.060;17.226;2023-03-01T03:10:59;102997.87;;;-5.24;89.87
44872;BME280;30602;51.060;17.226;2023-03-01T03:14:44;102993.38;;;-5.22;90.26
44872;BME280;30602;51.060;17.226;2023-03-01T03:18:40;102993.54;;;-5.27;90.25
44872;BME280;30602;51.060;17.226;2023-03-01T03:22:04;102989.20;;;-5.35;90.49
44872;BME280;30602;51.060;17.226;2023-03-01T03:25:44;102981.41;;;-5.32;90.79
44872;BME280;30602;51.060;17.226;2023-03-01T03:29:36;102968.59;;;-5.29;90.96
44872;BME280;30602;51.060;17.226;2023-03-01T03:33:05;102968.93;;;-5.19;91.12
44872;BME280;30602;51.060;17.226;2023-03-01T03:36:57;102967.26;;;-5.16;90.90
44872;BME280;30602;51.060;17.226;2023-03-01T03:40:33;102963.32;;;-5.29;90.33
44872;BME280;30602;51.060;17.226;2023-03-01T03:44:32;102965.73;;;-5.35;90.31
44872;BME280;30602;51.060;17.226;2023-03-01T03:48:04;102969.07;;;-5.34;90.36
44872;BME280;30602;51.060;17.226;2023-03-01T03:52:00;102968.12;;;-5.34;90.57
44872;BME280;30602;51.060;17.226;2023-03-01T03:56:04;102952.64;;;-5.33;91.02
44872;BME280;30602;51.060;17.226;2023-03-01T04:00:28;102951.56;;;-5.32;90.92
44872;BME280;30602;51.060;17.226;2023-03-01T04:03:56;102943.80;;;-5.41;90.57
44872;BME280;30602;51.060;17.226;2023-03-01T04:07:27;102941.00;;;-5.47;90.21
44872;BME280;30602;51.060;17.226;2023-03-01T04:11:21;102927.70;;;-5.56;90.30
44872;BME280;30602;51.060;17.226;2023-03-01T04:15:18;102939.61;;;-5.44;90.95
44872;BME280;30602;51.060;17.226;2023-03-01T04:26:53;102945.92;;;-5.53;91.10
44872;BME280;30602;51.060;17.226;2023-03-01T04:31:03;102948.03;;;-5.60;90.28
44872;BME280;30602;51.060;17.226;2023-03-01T04:35:05;102938.52;;;-5.71;89.57
44872;BME280;30602;51.060;17.226;2023-03-01T04:38:34;102951.35;;;-5.71;89.39
44872;BME280;30602;51.060;17.226;2023-03-01T04:42:57;102942.34;;;-5.72;89.76
44872;BME280;30602;51.060;17.226;2023-03-01T04:46:57;102945.88;;;-5.71;89.72
44872;BME280;30602;51.060;17.226;2023-03-01T04:50:18;102947.78;;;-5.79;89.07
44872;BME280;30602;51.060;17.226;2023-03-01T04:54:08;102942.65;;;-5.79;89.31
44872;BME280;30602;51.060;17.226;2023-03-01T04:57:57;102955.52;;;-5.80;88.64
44872;BME280;30602;51.060;17.226;2023-03-01T05:02:19;102953.08;;;-5.80;88.82
44872;BME280;30602;51.060;17.226;2023-03-01T05:06:14;102954.34;;;-5.89;88.61
44872;BME280;30602;51.060;17.226;2023-03-01T05:10:52;102946.50;;;-5.82;89.10
44872;BME280;30602;51.060;17.226;2023-03-01T05:15:06;102944.85;;;-5.80;89.40
44872;BME280;30602;51.060;17.226;2023-03-01T05:18:50;102949.70;;;-5.77;89.67
44872;BME280;30602;51.060;17.226;2023-03-01T05:22:18;102956.16;;;-5.87;89.36
44872;BME280;30602;51.060;17.226;2023-03-01T05:26:13;102952.49;;;-5.84;90.20
44872;BME280;30602;51.060;17.226;2023-03-01T05:30:03;102951.06;;;-5.89;89.53
44872;BME280;30602;51.060;17.226;2023-03-01T05:34:08;102956.94;;;-5.87;89.59
44872;BME280;30602;51.060;17.226;2023-03-01T05:38:05;102951.83;;;-5.92;89.42
44872;BME280;30602;51.060;17.226;2023-03-01T05:41:54;102958.95;;;-5.88;89.26
44872;BME280;30602;51.060;17.226;2023-03-01T05:46:20;102961.68;;;-5.92;89.11
44872;BME280;30602;51.060;17.226;2023-03-01T05:50:32;102961.63;;;-5.92;88.64
44872;BME280;30602;51.060;17.226;2023-03-01T05:58:05;102968.99;;;-5.95;88.50
44872;BME280;30602;51.060;17.226;2023-03-01T06:01:39;102968.45;;;-5.84;89.33
44872;BME280;30602;51.060;17.226;2023-03-01T06:05:19;102964.61;;;-5.71;89.94
44872;BME280;30602;51.060;17.226;2023-03-01T06:08:45;102964.09;;;-5.69;90.11
44872;BME280;30602;51.060;17.226;2023-03-01T06:12:13;102965.25;;;-5.59;90.47
44872;BME280;30602;51.060;17.226;2023-03-01T06:16:05;102963.52;;;-5.48;91.30
44872;BME280;30602;51.060;17.226;2023-03-01T06:19:32;102959.70;;;-5.20;91.91
44872;BME280;30602;51.060;17.226;2023-03-01T06:23:47;102954.14;;;-5.09;91.95
44872;BME280;30602;51.060;17.226;2023-03-01T06:27:16;102947.48;;;-4.97;91.76
44872;BME280;30602;51.060;17.226;2023-03-01T06:31:02;102943.62;;;-4.95;91.47
44872;BME280;30602;51.060;17.226;2023-03-01T06:34:36;102942.79;;;-4.80;91.65
44872;BME280;30602;51.060;17.226;2023-03-01T06:38:20;102938.77;;;-4.69;91.62
44872;BME280;30602;51.060;17.226;2023-03-01T06:41:45;102935.98;;;-4.60;91.56
44872;BME280;30602;51.060;17.226;2023-03-01T06:45:33;102934.20;;;-4.53;92.00
44872;BME280;30602;51.060;17.226;2023-03-01T06:49:35;102913.12;;;-4.50;92.23
44872;BME280;30602;51.060;17.226;2023-03-01T06:53:41;102923.87;;;-4.17;92.57
44872;BME280;30602;51.060;17.226;2023-03-01T06:57:34;102924.87;;;-3.98;93.68
44872;BME280;30602;51.060;17.226;2023-03-01T07:01:33;102920.47;;;-3.90;94.35
44872;BME280;30602;51.060;17.226;2023-03-01T07:04:58;102920.05;;;-3.76;94.43
44872;BME280;30602;51.060;17.226;2023-03-01T07:09:13;102927.70;;;-3.67;94.62
44872;BME280;30602;51.060;17.226;2023-03-01T07:12:57;102937.67;;;-3.51;94.10
44872;BME280;30602;51.060;17.226;2023-03-01T07:16:53;102945.95;;;-3.38;93.89
44872;BME280;30602;51.060;17.226;2023-03-01T07:21:13;102948.12;;;-3.15;94.27
44872;BME280;30602;51.060;17.226;2023-03-01T07:25:08;102931.75;;;-2.99;94.32
44872;BME280;30602;51.060;17.226;2023-03-01T07:29:24;102938.46;;;-2.78;94.32
44872;BME280;30602;51.060;17.226;2023-03-01T07:32:56;102932.97;;;-2.71;93.26
44872;BME280;30602;51.060;17.226;2023-03-01T07:36:23;102913.27;;;-2.80;93.24
44872;BME280;30602;51.060;17.226;2023-03-01T07:40:14;102898.56;;;-2.70;93.52
44872;BME280;30602;51.060;17.226;2023-03-01T07:43:43;102913.80;;;-2.41;93.59
44872;BME280;30602;51.060;17.226;2023-03-01T07:47:34;102916.76;;;-2.24;93.54
44872;BME280;30602;51.060;17.226;2023-03-01T07:51:27;102914.00;;;-2.14;93.39
44872;BME280;30602;51.060;17.226;2023-03-01T07:55:16;102907.55;;;-1.93;93.41
44872;BME280;30602;51.060;17.226;2023-03-01T07:59:00;102912.26;;;-1.82;92.60
44872;BME280;30602;51.060;17.226;2023-03-01T08:02:30;102912.13;;;-1.68;92.03
44872;BME280;30602;51.060;17.226;2023-03-01T08:06:44;102905.91;;;-1.69;91.41
44872;BME280;30602;51.060;17.226;2023-03-01T08:11:05;102893.97;;;-1.60;90.12
44872;BME280;30602;51.060;17.226;2023-03-01T08:14:32;102885.76;;;-1.50;89.26
44872;BME280;30602;51.060;17.226;2023-03-01T08:18:05;102880.59;;;-1.38;88.96
44872;BME280;30602;51.060;17.226;2023-03-01T08:22:04;102876.97;;;-1.21;87.68
44872;BME280;30602;51.060;17.226;2023-03-01T08:25:50;102877.30;;;-1.07;86.21
44872;BME280;30602;51.060;17.226;2023-03-01T08:29:16;102883.55;;;-0.86;84.57
44872;BME280;30602;51.060;17.226;2023-03-01T08:33:22;102885.94;;;-0.82;83.94
44872;BME280;30602;51.060;17.226;2023-03-01T08:37:33;102884.27;;;-0.72;83.32
44872;BME280;30602;51.060;17.226;2023-03-01T08:41:20;102885.34;;;-0.53;82.48
44872;BME280;30602;51.060;17.226;2023-03-01T08:49:05;102897.50;;;-0.21;81.98
44872;BME280;30602;51.060;17.226;2023-03-01T08:53:02;102896.74;;;-0.16;78.58
44872;BME280;30602;51.060;17.226;2023-03-01T08:57:15;102894.86;;;0.01;77.88
44872;BME280;30602;51.060;17.226;2023-03-01T09:00:57;102898.42;;;-0.01;77.92
44872;BME280;30602;51.060;17.226;2023-03-01T09:04:56;102888.38;;;0.08;76.94
44872;BME280;30602;51.060;17.226;2023-03-01T09:09:02;102876.24;;;0.11;76.32
44872;BME280;30602;51.060;17.226;2023-03-01T09:12:30;102859.50;;;0.12;75.58
44872;BME280;30602;51.060;17.226;2023-03-01T09:16:36;102879.42;;;0.33;73.40
44872;BME280;30602;51.060;17.226;2023-03-01T09:20:19;102875.93;;;0.34;70.84
44872;BME280;30602;51.060;17.226;2023-03-01T09:23:49;102874.89;;;0.32;68.45
44872;BME280;30602;51.060;17.226;2023-03-01T09:27:33;102873.78;;;0.55;67.80
44872;BME280;30602;51.060;17.226;2023-03-01T09:31:01;102871.68;;;0.62;66.99
44872;BME280;30602;51.060;17.226;2023-03-01T09:34:20;102872.70;;;0.58;68.54
44872;BME280;30602;51.060;17.226;2023-03-01T09:38:02;102866.09;;;0.75;68.54
44872;BME280;30602;51.060;17.226;2023-03-01T09:42:12;102861.84;;;0.88;67.77
44872;BME280;30602;51.060;17.226;2023-03-01T09:46:56;102861.84;;;0.92;67.02
44872;BME280;30602;51.060;17.226;2023-03-01T09:50:53;102852.36;;;1.02;65.14
44872;BME280;30602;51.060;17.226;2023-03-01T09:54:16;102847.12;;;1.16;66.88
44872;BME280;30602;51.060;17.226;2023-03-01T10:02:43;102855.53;;;1.51;66.00
44872;BME280;30602;51.060;17.226;2023-03-01T10:06:51;102858.30;;;1.53;65.30
44872;BME280;30602;51.060;17.226;2023-03-01T10:11:22;102847.22;;;1.58;65.54
44872;BME280;30602;51.060;17.226;2023-03-01T10:15:34;102849.76;;;1.60;65.93
44872;BME280;30602;51.060;17.226;2023-03-01T10:20:16;102850.35;;;1.70;64.58
44872;BME280;30602;51.060;17.226;2023-03-01T10:24:35;102837.27;;;1.74;64.56
44872;BME280;30602;51.060;17.226;2023-03-01T10:31:59;102829.03;;;1.80;58.72
44872;BME280;30602;51.060;17.226;2023-03-01T10:36:13;102829.42;;;1.82;58.29
44872;BME280;30602;51.060;17.226;2023-03-01T10:39:33;102824.80;;;1.71;59.02
44872;BME280;30602;51.060;17.226;2023-03-01T10:43:18;102823.88;;;1.81;58.97
44872;BME280;30602;51.060;17.226;2023-03-01T10:47:29;102817.04;;;2.08;62.28
44872;BME280;30602;51.060;17.226;2023-03-01T10:51:40;102808.91;;;2.20;62.80
44872;BME280;30602;51.060;17.226;2023-03-01T11:01:26;102816.00;;;2.33;62.84
44872;BME280;30602;51.060;17.226;2023-03-01T11:09:40;102795.34;;;2.42;60.54
44872;BME280;30602;51.060;17.226;2023-03-01T11:21:10;102778.30;;;2.63;61.30
44872;BME280;30602;51.060;17.226;2023-03-01T11:25:37;102766.84;;;2.62;61.40
44872;BME280;30602;51.060;17.226;2023-03-01T11:41:39;102765.67;;;3.05;59.37
44872;BME280;30602;51.060;17.226;2023-03-01T11:58:27;102761.29;;;3.19;59.36
44872;BME280;30602;51.060;17.226;2023-03-01T12:06:28;102744.35;;;3.35;58.71
44872;BME280;30602;51.060;17.226;2023-03-01T12:24:13;102730.17;;;3.68;57.83
44872;BME280;30602;51.060;17.226;2023-03-01T12:32:56;102720.38;;;3.75;58.03
44872;BME280;30602;51.060;17.226;2023-03-01T12:37:21;102720.13;;;3.73;56.71
44872;BME280;30602;51.060;17.226;2023-03-01T12:45:50;102708.95;;;3.87;54.64
44872;BME280;30602;51.060;17.226;2023-03-01T12:53:47;102673.65;;;3.70;52.92
44872;BME280;30602;51.060;17.226;2023-03-01T12:57:41;102687.24;;;3.89;51.12
44872;BME280;30602;51.060;17.226;2023-03-01T13:09:08;102679.09;;;4.18;47.16
44872;BME280;30602;51.060;17.226;2023-03-01T13:13:47;102674.91;;;4.23;47.34
44872;BME280;30602;51.060;17.226;2023-03-01T13:17:40;102670.73;;;4.21;45.49
44872;BME280;30602;51.060;17.226;2023-03-01T13:20:59;102669.19;;;4.34;47.73
44872;BME280;30602;51.060;17.226;2023-03-01T13:25:03;102667.69;;;4.32;44.77
44872;BME280;30602;51.060;17.226;2023-03-01T13:30:04;102667.51;;;4.28;43.52
44872;BME280;30602;51.060;17.226;2023-03-01T13:34:50;102670.12;;;4.33;42.15
44872;BME280;30602;51.060;17.226;2023-03-01T13:46:26;102655.41;;;4.30;40.67
44872;BME280;30602;51.060;17.226;2023-03-01T13:58:58;102639.75;;;4.59;39.24
44872;BME280;30602;51.060;17.226;2023-03-01T14:02:45;102634.39;;;4.51;39.97
44872;BME280;30602;51.060;17.226;2023-03-01T14:06:13;102627.49;;;4.51;40.56
44872;BME280;30602;51.060;17.226;2023-03-01T14:09:48;102624.78;;;4.53;40.31
44872;BME280;30602;51.060;17.226;2023-03-01T14:19:15;102622.34;;;4.58;39.76
44872;BME280;30602;51.060;17.226;2023-03-01T14:26:31;102610.96;;;4.63;39.88
44872;BME280;30602;51.060;17.226;2023-03-01T14:30:48;102605.54;;;4.51;39.39
44872;BME280;30602;51.060;17.226;2023-03-01T14:34:44;102600.21;;;4.54;40.14
44872;BME280;30602;51.060;17.226;2023-03-01T14:38:45;102590.08;;;4.56;39.90
44872;BME280;30602;51.060;17.226;2023-03-01T14:42:37;102584.20;;;4.51;41.03
44872;BME280;30602;51.060;17.226;2023-03-01T14:46:01;102581.53;;;4.51;40.41
44872;BME280;30602;51.060;17.226;2023-03-01T14:49:25;102579.98;;;4.51;41.45
44872;BME280;30602;51.060;17.226;2023-03-01T14:52:48;102578.03;;;4.52;40.85
44872;BME280;30602;51.060;17.226;2023-03-01T14:56:16;102571.72;;;4.49;41.40
44872;BME280;30602;51.060;17.226;2023-03-01T15:00:22;102570.83;;;4.49;43.08
44872;BME280;30602;51.060;17.226;2023-03-01T15:03:59;102567.90;;;4.39;43.60
44872;BME280;30602;51.060;17.226;2023-03-01T15:07:42;102574.31;;;4.32;43.81
44872;BME280;30602;51.060;17.226;2023-03-01T15:11:28;102576.23;;;4.19;43.97
44872;BME280;30602;51.060;17.226;2023-03-01T15:18:59;102575.13;;;4.21;46.69
44872;BME280;30602;51.060;17.226;2023-03-01T15:22:46;102574.04;;;4.28;44.26
44872;BME280;30602;51.060;17.226;2023-03-01T15:26:37;102575.77;;;4.33;43.86
44872;BME280;30602;51.060;17.226;2023-03-01T15:30:43;102572.13;;;4.22;43.76
44872;BME280;30602;51.060;17.226;2023-03-01T15:35:40;102573.29;;;4.24;45.26
44872;BME280;30602;51.060;17.226;2023-03-01T15:39:05;102568.45;;;4.00;48.26
44872;BME280;30602;51.060;17.226;2023-03-01T15:42:53;102573.14;;;3.88;49.83
44872;BME280;30602;51.060;17.226;2023-03-01T15:46:48;102573.92;;;3.72;50.36
44872;BME280;30602;51.060;17.226;2023-03-01T15:51:13;102572.48;;;3.56;51.19
44872;BME280;30602;51.060;17.226;2023-03-01T15:55:23;102586.12;;;3.53;50.48
44872;BME280;30602;51.060;17.226;2023-03-01T15:59:40;102590.64;;;3.48;50.77
44872;BME280;30602;51.060;17.226;2023-03-01T16:03:54;102590.27;;;3.42;50.64
44872;BME280;30602;51.060;17.226;2023-03-01T16:07:27;102596.37;;;3.24;51.74
44872;BME280;30602;51.060;17.226;2023-03-01T16:11:24;102599.59;;;3.10;54.46
44872;BME280;30602;51.060;17.226;2023-03-01T16:14:44;102600.05;;;2.95;57.49
44872;BME280;30602;51.060;17.226;2023-03-01T16:18:13;102603.84;;;2.80;59.97
44872;BME280;30602;51.060;17.226;2023-03-01T16:22:06;102606.82;;;2.82;60.06
44872;BME280;30602;51.060;17.226;2023-03-01T16:25:27;102605.31;;;2.52;60.99
44872;BME280;30602;51.060;17.226;2023-03-01T16:28:53;102603.92;;;2.42;62.68
44872;BME280;30602;51.060;17.226;2023-03-01T16:33:16;102602.33;;;2.20;63.85
44872;BME280;30602;51.060;17.226;2023-03-01T16:37:16;102601.26;;;2.02;64.74
44872;BME280;30602;51.060;17.226;2023-03-01T16:40:50;102607.62;;;1.93;65.09
44872;BME280;30602;51.060;17.226;2023-03-01T16:44:47;102615.89;;;1.95;65.73
44872;BME280;30602;51.060;17.226;2023-03-01T16:48:54;102625.77;;;1.70;66.55
44872;BME280;30602;51.060;17.226;2023-03-01T16:52:38;102628.00;;;1.44;67.27
44872;BME280;30602;51.060;17.226;2023-03-01T16:55:58;102631.82;;;1.24;69.07
44872;BME280;30602;51.060;17.226;2023-03-01T17:00:16;102633.38;;;1.00;69.75
44872;BME280;30602;51.060;17.226;2023-03-01T17:04:33;102637.54;;;0.77;70.20
44872;BME280;30602;51.060;17.226;2023-03-01T17:08:47;102640.53;;;0.59;71.86
44872;BME280;30602;51.060;17.226;2023-03-01T17:13:01;102641.03;;;0.57;72.49
44872;BME280;30602;51.060;17.226;2023-03-01T17:16:43;102642.12;;;0.44;74.02
44872;BME280;30602;51.060;17.226;2023-03-01T17:20:05;102639.44;;;0.39;76.20
44872;BME280;30602;51.060;17.226;2023-03-01T17:24:08;102632.21;;;0.21;76.79
44872;BME280;30602;51.060;17.226;2023-03-01T17:28:46;102634.03;;;0.09;77.62
44872;BME280;30602;51.060;17.226;2023-03-01T17:32:30;102626.54;;;0.06;77.69
44872;BME280;30602;51.060;17.226;2023-03-01T17:35:53;102629.09;;;0.12;76.81
44872;BME280;30602;51.060;17.226;2023-03-01T17:39:34;102624.70;;;0.07;76.87
44872;BME280;30602;51.060;17.226;2023-03-01T17:42:56;102625.21;;;0.14;75.05
44872;BME280;30602;51.060;17.226;2023-03-01T17:46:50;102636.03;;;0.14;73.27
44872;BME280;30602;51.060;17.226;2023-03-01T17:50:37;102639.47;;;0.24;73.51
44872;BME280;30602;51.060;17.226;2023-03-01T17:54:11;102637.29;;;0.01;74.80
44872;BME280;30602;51.060;17.226;2023-03-01T17:57:36;102633.94;;;0.09;74.53
44872;BME280;30602;51.060;17.226;2023-03-01T18:01:15;102631.34;;;-0.05;74.49
44872;BME280;30602;51.060;17.226;2023-03-01T18:05:20;102629.66;;;-0.14;75.16
44872;BME280;30602;51.060;17.226;2023-03-01T18:08:50;102631.52;;;-0.29;75.61
44872;BME280;30602;51.060;17.226;2023-03-01T18:12:41;102633.42;;;-0.50;75.87
44872;BME280;30602;51.060;17.226;2023-03-01T18:16:13;102640.02;;;-0.66;76.95
44872;BME280;30602;51.060;17.226;2023-03-01T18:19:52;102643.32;;;-0.71;77.87
44872;BME280;30602;51.060;17.226;2023-03-01T18:23:54;102647.02;;;-0.76;78.67
44872;BME280;30602;51.060;17.226;2023-03-01T18:27:38;102643.52;;;-0.70;78.57
44872;BME280;30602;51.060;17.226;2023-03-01T18:31:05;102640.92;;;-0.76;78.49
44872;BME280;30602;51.060;17.226;2023-03-01T18:34:38;102636.89;;;-0.74;78.11
44872;BME280;30602;51.060;17.226;2023-03-01T18:38:40;102633.34;;;-0.78;78.09
44872;BME280;30602;51.060;17.226;2023-03-01T18:42:06;102633.02;;;-0.83;78.85
44872;BME280;30602;51.060;17.226;2023-03-01T18:45:46;102633.61;;;-0.83;79.06
44872;BME280;30602;51.060;17.226;2023-03-01T18:53:42;102630.93;;;-0.93;77.44
44872;BME280;30602;51.060;17.226;2023-03-01T18:57:05;102627.58;;;-1.22;77.97
44872;BME280;30602;51.060;17.226;2023-03-01T19:00:36;102626.34;;;-1.25;79.61
44872;BME280;30602;51.060;17.226;2023-03-01T19:05:01;102619.12;;;-1.29;80.28
44872;BME280;30602;51.060;17.226;2023-03-01T19:08:48;102614.47;;;-1.26;80.94
44872;BME280;30602;51.060;17.226;2023-03-01T19:12:09;102602.21;;;-1.42;81.78
44872;BME280;30602;51.060;17.226;2023-03-01T19:16:38;102612.27;;;-1.40;82.99
44872;BME280;30602;51.060;17.226;2023-03-01T19:21:02;102607.52;;;-1.35;84.03
44872;BME280;30602;51.060;17.226;2023-03-01T19:25:28;102614.33;;;-1.45;83.24
44872;BME280;30602;51.060;17.226;2023-03-01T19:29:02;102623.01;;;-1.57;83.76
44872;BME280;30602;51.060;17.226;2023-03-01T19:32:54;102623.70;;;-1.53;84.29
44872;BME280;30602;51.060;17.226;2023-03-01T19:36:42;102617.42;;;-1.53;84.27
44872;BME280;30602;51.060;17.226;2023-03-01T19:40:27;102617.19;;;-1.60;84.09
44872;BME280;30602;51.060;17.226;2023-03-01T19:43:56;102623.79;;;-1.68;83.71
44872;BME280;30602;51.060;17.226;2023-03-01T19:47:32;102621.47;;;-1.85;83.16
44872;BME280;30602;51.060;17.226;2023-03-01T19:51:58;102623.12;;;-1.91;83.49
44872;BME280;30602;51.060;17.226;2023-03-01T19:56:26;102627.06;;;-1.98;83.69
44872;BME280;30602;51.060;17.226;2023-03-01T19:59:47;102625.77;;;-2.03;82.89
44872;BME280;30602;51.060;17.226;2023-03-01T20:03:11;102619.55;;;-2.20;83.00
44872;BME280;30602;51.060;17.226;2023-03-01T20:06:52;102624.91;;;-2.22;84.45
44872;BME280;30602;51.060;17.226;2023-03-01T20:10:38;102628.76;;;-2.22;85.24
44872;BME280;30602;51.060;17.226;2023-03-01T20:14:22;102615.66;;;-2.25;86.62
44872;BME280;30602;51.060;17.226;2023-03-01T20:17:46;102627.21;;;-2.16;86.64
44872;BME280;30602;51.060;17.226;2023-03-01T20:21:19;102631.57;;;-2.26;86.42
44872;BME280;30602;51.060;17.226;2023-03-01T20:24:59;102632.16;;;-2.27;86.24
44872;BME280;30602;51.060;17.226;2023-03-01T20:29:01;102625.91;;;-2.38;85.18
44872;BME280;30602;51.060;17.226;2023-03-01T20:32:49;102615.17;;;-2.50;84.91
44872;BME280;30602;51.060;17.226;2023-03-01T20:36:34;102622.23;;;-2.43;85.62
44872;BME280;30602;51.060;17.226;2023-03-01T20:40:03;102621.22;;;-2.32;86.81
44872;BME280;30602;51.060;17.226;2023-03-01T20:43:24;102615.64;;;-2.37;85.96
44872;BME280;30602;51.060;17.226;2023-03-01T20:46:57;102610.28;;;-2.43;85.76
44872;BME280;30602;51.060;17.226;2023-03-01T20:50:43;102609.73;;;-2.46;86.19
44872;BME280;30602;51.060;17.226;2023-03-01T20:54:54;102605.09;;;-2.47;86.60
44872;BME280;30602;51.060;17.226;2023-03-01T20:58:50;102608.11;;;-2.62;86.15
44872;BME280;30602;51.060;17.226;2023-03-01T21:02:36;102597.74;;;-2.71;87.02
44872;BME280;30602;51.060;17.226;2023-03-01T21:06:25;102622.55;;;-2.57;87.53
44872;BME280;30602;51.060;17.226;2023-03-01T21:10:10;102599.91;;;-2.68;88.25
44872;BME280;30602;51.060;17.226;2023-03-01T21:14:00;102610.51;;;-2.67;88.06
44872;BME280;30602;51.060;17.226;2023-03-01T21:17:57;102619.29;;;-2.66;88.54
44872;BME280;30602;51.060;17.226;2023-03-01T21:21:29;102618.66;;;-2.87;88.43
44872;BME280;30602;51.060;17.226;2023-03-01T21:29:28;102616.26;;;-2.81;88.74
44872;BME280;30602;51.060;17.226;2023-03-01T21:34:06;102618.09;;;-2.99;87.81
44872;BME280;30602;51.060;17.226;2023-03-01T21:37:54;102608.55;;;-3.19;87.28
44872;BME280;30602;51.060;17.226;2023-03-01T21:41:37;102619.77;;;-3.10;87.43
44872;BME280;30602;51.060;17.226;2023-03-01T21:45:31;102617.45;;;-3.20;87.27
44872;BME280;30602;51.060;17.226;2023-03-01T21:49:36;102616.75;;;-3.30;87.14
44872;BME280;30602;51.060;17.226;2023-03-01T21:53:29;102609.48;;;-3.25;87.54
44872;BME280;30602;51.060;17.226;2023-03-01T21:57:01;102612.35;;;-3.19;87.64
44872;BME280;30602;51.060;17.226;2023-03-01T22:01:08;102615.97;;;-3.19;87.79
44872;BME280;30602;51.060;17.226;2023-03-01T22:05:23;102614.49;;;-3.12;87.43
44872;BME280;30602;51.060;17.226;2023-03-01T22:13:50;102617.51;;;-3.25;87.66
44872;BME280;30602;51.060;17.226;2023-03-01T22:17:15;102606.49;;;-3.28;87.49
44872;BME280;30602;51.060;17.226;2023-03-01T22:21:07;102596.35;;;-3.35;87.82
44872;BME280;30602;51.060;17.226;2023-03-01T22:24:54;102600.83;;;-3.45;87.72
44872;BME280;30602;51.060;17.226;2023-03-01T22:28:22;102603.65;;;-3.47;88.16
44872;BME280;30602;51.060;17.226;2023-03-01T22:32:24;102603.32;;;-3.51;87.88
44872;BME280;30602;51.060;17.226;2023-03-01T22:35:49;102595.16;;;-3.50;88.27
44872;BME280;30602;51.060;17.226;2023-03-01T22:39:20;102594.77;;;-3.51;88.25